Stations météo

Publicité
Fehmarn, Allemagne (10055): Température de l'air & dewpoint: 14.07.2018 14:00:00 - 20.07.2018 14:00:00 (CEST)Fehmarn, Allemagne (10055): Température de l'air 5cm & Température de l'air -5cm: 14.07.2018 14:00:00 - 20.07.2018 14:00:00 (CEST)Fehmarn, Allemagne (10055): Température de l'air -20cm & Température de l'air -100cm: 14.07.2018 14:00:00 - 20.07.2018 14:00:00 (CEST)Fehmarn, Allemagne (10055): Vitesse du vent & gusts: 14.07.2018 14:00:00 - 20.07.2018 14:00:00 (CEST)Fehmarn, Allemagne (10055): Direction du vent: 14.07.2018 14:00:00 - 20.07.2018 14:00:00 (CEST)Fehmarn, Allemagne (10055): reduced air pressure: 14.07.2018 14:00:00 - 20.07.2018 14:00:00 (CEST)Fehmarn, Allemagne (10055): Ensoleillement: 14.07.2018 14:00:00 - 20.07.2018 14:00:00 (CEST)Fehmarn, Allemagne (10055): Quantités de précipitations: 14.07.2018 14:00:00 - 20.07.2018 14:00:00 (CEST)
Date & Time tt [°C] td [°C] tt 5cm [°C] tt -5cm [°C] tt -20cm [°C] tt -100cm [°C] ff [km/h] ff [knt] fx [km/h] fx [knt] dd ppp [hPa] sd [min] rr [mm]
20.07.2018 14:00:00 20,9 11,6 24,9 30,5 21,9 19,6 18 10 26 14 W 1015,7 60 0,0
20.07.2018 13:00:00 20,2 11,1 24,8 29,2 21,3 19,5 20 11 27 15 W 1015,9 60 0,0
20.07.2018 12:00:00 19,4 10,8 23,4 27,7 20,9 19,5 19 11 27 15 W 1016,1 60 0,0
20.07.2018 11:00:00 18,8 11,9 22,6 25,8 20,5 19,5 19 10 25 14 WNW 1016,2 60 0,0
20.07.2018 10:00:00 18,1 11,6 21,6 23,8 20,3 19,5 18 10 25 14 NW 1016,5 60 0,0
20.07.2018 09:00:00 17,7 12,6 20,5 21,7 20,2 19,5 18 10 26 14 NW 1016,5 60 0,0
20.07.2018 08:00:00 17,0 11,0 18,7 20,0 20,3 19,5 18 10 28 15 NNW 1016,4 60 0,0
20.07.2018 07:00:00 16,3 11,0 16,5 19,0 20,6 19,5 23 12 29 15 NNW 1016,4 60 0,0
20.07.2018 06:00:00 16,2 11,7 15,6 18,8 20,8 19,5 21 12 27 14 NW 1016,3 2 0,0
20.07.2018 05:00:00 16,4 12,7 15,3 19,1 21,1 19,5 21 12 25 14 NW 1016,5 0 0,0
20.07.2018 04:00:00 16,6 12,5 15,7 19,5 21,5 19,5 23 12 28 15 NW 1016,5 0 0,0
20.07.2018 03:00:00 17,1 12,6 16,0 20,0 21,8 19,5 23 12 30 16 NNW 1016,6 0 0,0
20.07.2018 02:00:00 17,8 12,7 16,7 20,6 22,1 19,5 25 13 30 16 NNW 1016,8 0 0,0
20.07.2018 01:00:00 18,6 12,8 17,7 21,2 22,5 19,5 26 14 37 20 NNW 1016,8 0 0,0
20.07.2018 00:00:00 19,4 14,1 18,4 21,9 22,8 19,5 32 17 40 22 NW 1016,9 0 0,0
19.07.2018 23:00:00 19,7 14,4 18,9 22,6 23,2 19,5 34 19 41 22 WNW 1016,9 0 0,0
19.07.2018 22:00:00 20,1 14,0 19,4 23,5 23,5 19,5 35 19 41 22 WNW 1017,0 5 0,0
19.07.2018 21:00:00 20,9 14,3 20,6 25,0 23,7 19,5 23 13 32 18 WNW 1016,9 60 0,0
19.07.2018 20:00:00 21,1 13,8 22,0 27,0 23,8 19,5 17 9 24 13 W 1016,8 60 0,0
19.07.2018 19:00:00 21,4 13,0 23,1 28,8 23,8 19,5 18 10 23 13 W 1016,9 60 0,0
19.07.2018 18:00:00 21,9 12,9 24,2 30,1 23,5 19,5 16 8 19 10 W 1017,1 60 0,0
19.07.2018 17:00:00 21,5 12,7 24,5 31,1 23,2 19,5 16 9 19 11 WNW 1017,6 60 0,0
19.07.2018 16:00:00 21,2 12,8 25,6 31,5 22,7 19,5 14 7 18 10 NW 1017,9 60 0,0
19.07.2018 15:00:00 21,1 14,1 25,8 31,1 22,1 19,4 15 8 21 11 WNW 1018,2 60 0,0
19.07.2018 14:00:00 20,0 14,5 24,8 30,1 21,6 19,4 15 8 25 14 WNW 1018,5 60 0,0
19.07.2018 13:00:00 20,0 14,6 24,2 28,3 21,2 19,4 21 12 35 19 WNW 1018,7 60 0,0
19.07.2018 12:00:00 19,2 13,8 23,0 26,6 20,8 19,4 28 15 35 19 WNW 1018,8 60 0,0
19.07.2018 11:00:00 19,3 14,2 22,7 25,2 20,5 19,4 29 15 34 19 NW 1018,6 60 0,0
19.07.2018 10:00:00 18,8 14,0 21,8 23,4 20,3 19,4 26 14 31 17 NW 1018,6 60 0,0
19.07.2018 09:00:00 18,4 13,0 20,4 21,6 20,2 19,4 28 15 34 18 NNW 1018,5 60 0,0
19.07.2018 08:00:00 17,6 12,5 19,0 20,2 20,3 19,4 26 14 31 17 NNW 1018,4 60 0,0
19.07.2018 07:00:00 17,0 12,0 17,2 19,3 20,6 19,4 27 15 36 19 NNW 1018,2 60 0,0
19.07.2018 06:00:00 17,0 12,3 16,3 19,1 20,8 19,4 28 15 35 19 NNW 1018,0 3 0,0
19.07.2018 05:00:00 17,1 12,6 16,2 19,5 21,1 19,4 28 15 36 20 NNW 1017,9 0 0,0
19.07.2018 04:00:00 17,9 13,1 16,9 20,0 21,3 19,4 31 17 38 20 NNW 1017,8 0 0,0
19.07.2018 03:00:00 18,2 13,2 17,5 20,6 21,6 19,3 31 17 38 21 NNW 1017,9 0 0,0
19.07.2018 02:00:00 19,0 13,3 18,7 20,9 21,9 19,3 31 17 39 21 NNW 1017,8 0 0,0
19.07.2018 01:00:00 19,4 14,4 18,7 21,3 22,1 19,3 31 17 45 24 NW 1017,6 0 0,0
19.07.2018 00:00:00 19,9 14,8 19,0 21,8 22,4 19,3 37 20 48 26 NW 1017,2 0 0,0
18.07.2018 23:00:00 20,4 14,5 19,7 22,4 22,7 19,3 38 21 46 25 NW 1016,7 0 0,0
18.07.2018 22:00:00 20,7 15,4 20,3 23,3 22,9 19,3 35 19 42 23 NW 1016,5 0 0,0
18.07.2018 21:00:00 21,1 16,5 20,9 24,3 23,1 19,3 30 16 37 20 WNW 1016,3 57 0,0
18.07.2018 20:00:00 21,4 17,4 21,8 25,8 23,2 19,3 30 16 39 21 WNW 1015,9 60 0,0
18.07.2018 19:00:00 21,7 16,7 22,9 27,2 23,2 19,3 31 17 40 22 WNW 1015,7 60 0,0
18.07.2018 18:00:00 21,8 16,3 23,6 28,2 23,1 19,3 32 17 42 23 WNW 1015,8 60 0,0
18.07.2018 17:00:00 21,9 16,2 24,0 28,8 22,8 19,3 36 19 45 24 WNW 1015,8 60 0,0
18.07.2018 16:00:00 21,9 16,8 24,8 29,1 22,5 19,2 32 18 44 24 WNW 1016,0 60 0,0
18.07.2018 15:00:00 21,5 16,5 24,2 28,5 22,1 19,2 35 19 44 24 WNW 1015,8 60 0,0
18.07.2018 14:00:00 21,0 15,8 24,1 28,2 21,8 19,2 36 19 45 24 WNW 1015,8 60 0,0
18.07.2018 13:00:00 20,7 16,2 23,9 27,1 21,4 19,2 35 19 43 23 WNW 1015,7 59 0,0
18.07.2018 12:00:00 20,0 16,0 23,3 25,1 21,3 19,2 37 20 45 24 WNW 1015,4 28 0,0
18.07.2018 11:00:00 19,2 16,3 20,5 23,7 21,2 19,2 32 17 42 23 WNW 1015,3 20 0,0
18.07.2018 10:00:00 19,0 16,4 20,5 22,5 21,2 19,2 32 17 41 22 WNW 1015,1 5 0,0
18.07.2018 09:00:00 19,1 16,9 20,3 21,9 21,3 19,2 29 16 39 21 WNW 1014,7 17 0,0
18.07.2018 08:00:00 18,5 16,5 18,6 21,0 21,5 19,2 30 16 42 23 WNW 1014,5 0 0,0
18.07.2018 07:00:00 18,3 16,0 18,2 21,0 21,7 19,1 35 19 42 23 W 1014,4 0 0,0
18.07.2018 06:00:00 18,4 16,5 18,1 21,1 21,9 19,1 32 17 39 21 WNW 1014,1 0 0,0
18.07.2018 05:00:00 18,8 17,4 18,0 21,5 22,2 19,1 31 17 38 20 W 1014,0 0 0,0
18.07.2018 04:00:00 19,5 17,6 18,9 21,8 22,5 19,1 32 17 38 20 WNW 1013,9 0 0,0
18.07.2018 03:00:00 20,1 18,2 19,5 22,3 22,7 19,1 31 17 41 22 WNW 1014,0 0 0,0
18.07.2018 02:00:00 21,0 17,5 20,5 22,8 23,0 19,1 32 18 39 21 WNW 1013,7 0 0,1
18.07.2018 01:00:00 22,6 17,9 21,7 23,1 23,4 19,1 25 13 29 16 WNW 1013,5 0 0,0
18.07.2018 00:00:00 19,8 14,9 17,4 23,4 23,7 19,1 6 4 9 5 SSW 1013,4 0 0,0
17.07.2018 23:00:00 19,5 14,4 17,1 24,4 24,1 19,1 5 3 10 5 SSE 1013,2 0 0,0
17.07.2018 22:00:00 21,7 15,0 20,4 25,8 24,4 19,1 7 4 10 6 S 1012,9 5 0,0
17.07.2018 21:00:00 24,2 15,9 24,2 27,8 24,5 19,1 4 2 11 6 ESE 1012,6 60 0,0
17.07.2018 20:00:00 24,7 16,7 26,2 29,7 24,5 19,1 7 4 11 6 NE 1012,3 60 0,0
17.07.2018 19:00:00 25,2 16,0 27,7 31,1 24,4 19,1 7 4 10 5 NW 1012,3 60 0,0
17.07.2018 18:00:00 25,4 18,5 27,9 32,1 24,1 19,1 7 4 12 6 NW 1012,4 60 0,0
17.07.2018 17:00:00 23,9 19,1 27,5 32,8 23,7 19,0 9 5 13 7 WNW 1012,7 60 0,0
17.07.2018 16:00:00 23,2 17,7 28,2 32,7 23,3 19,0 11 6 17 9 NW 1012,8 60 0,0
17.07.2018 15:00:00 23,8 19,3 28,4 32,3 22,7 19,0 13 7 16 8 W 1013,1 60 0,0
17.07.2018 14:00:00 23,2 18,4 29,1 31,9 22,1 19,0 10 5 15 8 WNW 1013,1 60 0,0
17.07.2018 13:00:00 22,6 18,6 26,8 29,0 21,7 19,0 14 7 18 10 W 1013,4 53 0,0
17.07.2018 12:00:00 22,3 18,5 26,7 29,3 21,1 19,0 14 7 17 9 W 1013,3 60 0,0
17.07.2018 11:00:00 21,6 17,0 25,9 27,6 20,6 19,0 8 4 14 7 N 1013,2 60 0,0
17.07.2018 10:00:00 21,0 18,2 25,5 25,1 20,3 19,0 8 5 14 7 N 1013,2 60 0,0
17.07.2018 09:00:00 21,0 18,6 23,9 22,6 20,2 19,0 12 6 18 10 W 1013,2 60 0,0
17.07.2018 08:00:00 20,4 18,6 22,4 20,2 20,3 19,0 11 6 14 7 W 1013,0 38 0,0
17.07.2018 07:00:00 17,7 15,4 17,0 19,3 20,5 18,9 10 5 14 8 SW 1012,8 4 0,0
17.07.2018 06:00:00 16,5 16,1 14,5 19,0 20,8 18,9 7 4 8 4 S 1013,0 0 0,0
17.07.2018 05:00:00 15,7 15,4 12,5 19,2 21,1 18,9 8 4 8 5 ENE 1013,0 0 0,0
17.07.2018 04:00:00 16,0 15,5 13,2 19,8 21,4 18,9 2 1 3 2 NNE 1013,1 0 0,0
17.07.2018 03:00:00 18,5 17,3 15,3 20,4 21,7 18,9 3 2 6 4 WNW 1013,3 0 0,0
17.07.2018 02:00:00 19,0 17,6 15,6 20,9 22,0 18,9 5 3 7 4 NW 1013,6 0 0,0
17.07.2018 01:00:00 19,7 17,5 16,7 21,6 22,3 18,9 6 3 10 6 W 1013,6 0 0,0
17.07.2018 00:00:00 19,9 17,2 18,3 22,2 22,7 18,9 9 5 11 6 NNW 1013,7 0 0,0
16.07.2018 23:00:00 20,6 17,4 17,7 22,8 23,0 18,9 5 3 12 6 NNW 1013,8 0 0,0
16.07.2018 22:00:00 21,1 16,3 19,0 24,0 23,3 18,9 10 5 15 8 NNE 1013,7 8 0,0
16.07.2018 21:00:00 21,1 18,3 21,1 25,6 23,5 18,9 9 5 14 8 NW 1013,5 60 0,0
16.07.2018 20:00:00 21,6 18,5 22,7 27,4 23,6 18,9 10 6 16 9 WNW 1013,4 60 0,0
16.07.2018 19:00:00 22,0 18,2 24,1 28,9 23,5 18,9 13 7 23 12 WNW 1013,5 60 0,0
16.07.2018 18:00:00 22,2 18,0 24,8 30,0 23,3 18,9 17 9 23 12 NW 1013,9 60 0,0
16.07.2018 17:00:00 22,8 17,2 26,1 30,4 23,1 18,9 19 10 25 13 NNW 1014,0 60 0,0
16.07.2018 16:00:00 22,4 17,1 24,8 29,9 22,8 18,8 21 11 25 13 NNW 1014,5 60 0,0
16.07.2018 15:00:00 22,6 17,3 26,5 30,8 22,5 18,8 18 10 24 13 NNW 1015,0 59 0,0
16.07.2018 14:00:00 21,7 16,7 24,5 29,8 22,1 18,8 18 10 22 12 NNW 1015,5 55 0,0
16.07.2018 13:00:00 21,6 16,9 24,7 29,3 21,7 18,8 17 9 21 11 NNW 1015,8 55 0,0
16.07.2018 12:00:00 21,7 17,3 27,0 29,2 21,1 18,8 12 6 18 10 NW 1015,9 60 0,0
16.07.2018 11:00:00 20,9 16,3 24,8 27,5 20,7 18,8 11 6 15 8 NW 1016,0 59 0,0
16.07.2018 10:00:00 20,3 15,6 25,2 26,0 20,2 18,8 9 5 11 6 NNW 1016,1 60 0,0
16.07.2018 09:00:00 19,7 15,2 23,9 23,5 20,0 18,8 10 5 17 9 NNE 1016,4 60 0,0
16.07.2018 08:00:00 19,8 16,0 22,2 21,3 20,0 18,8 13 7 19 11 NE 1016,6 60 0,0
16.07.2018 07:00:00 19,4 16,0 20,0 19,7 20,2 18,8 15 8 20 11 NE 1016,7 44 0,0
16.07.2018 06:00:00 18,4 16,9 17,3 19,2 20,5 18,8 15 8 21 12 NE 1016,6 0 0,0
16.07.2018 05:00:00 18,6 17,0 17,2 19,4 20,8 18,8 15 8 20 11 NNE 1016,4 0 0,0
16.07.2018 04:00:00 18,5 16,4 17,1 19,7 21,1 18,8 14 7 18 10 N 1016,6 0 0,0
16.07.2018 03:00:00 18,6 16,0 17,2 20,1 21,4 18,8 13 7 19 10 N 1016,7 0 0,0
16.07.2018 02:00:00 19,3 16,0 17,9 20,6 21,8 18,8 16 9 21 12 NW 1017,0 0 0,0
16.07.2018 01:00:00 19,8 16,6 18,5 21,2 22,2 18,8 14 7 17 9 NW 1016,9 0 0,0
16.07.2018 00:00:00 19,7 17,5 18,2 21,9 22,6 18,8 12 6 16 9 WNW 1017,0 0 0,0
15.07.2018 23:00:00 19,6 16,9 18,1 22,7 23,0 18,8 10 6 14 7 W 1016,9 0 0,0
15.07.2018 22:00:00 19,6 16,7 18,0 23,9 23,4 18,8 8 4 10 6 W 1016,8 9 0,0
15.07.2018 21:00:00 20,7 15,7 21,5 25,8 23,6 18,8 8 4 10 5 WSW 1016,7 60 0,0
15.07.2018 20:00:00 21,2 14,8 23,4 28,0 23,7 18,8 8 4 12 7 W 1016,6 60 0,0
15.07.2018 19:00:00 21,4 15,4 23,9 29,7 23,5 18,8 10 5 13 7 W 1016,7 60 0,0
15.07.2018 18:00:00 21,9 14,3 25,0 31,0 23,2 18,8 8 5 12 7 W 1017,3 60 0,0
15.07.2018 17:00:00 21,2 13,9 24,9 31,5 22,7 18,8 9 5 18 10 W 1017,8 60 0,0
15.07.2018 16:00:00 20,8 14,3 25,0 31,6 22,1 18,8 13 7 19 10 W 1018,0 60 0,0
15.07.2018 15:00:00 20,1 14,6 24,8 31,5 21,4 18,8 14 8 18 10 W 1018,4 60 0,0
15.07.2018 14:00:00 19,9 14,7 26,0 30,8 20,6 18,8 13 7 19 11 W 1018,8 60 0,0
15.07.2018 13:00:00 19,2 14,4 25,0 29,3 19,9 18,8 16 9 21 11 W 1019,0 60 0,0
15.07.2018 12:00:00 18,7 14,8 24,0 27,6 19,2 18,8 16 8 19 11 W 1019,1 60 0,0
15.07.2018 11:00:00 18,2 14,7 23,6 25,6 18,6 18,8 7 4 14 7 NNW 1019,2 57 0,0
15.07.2018 10:00:00 17,4 14,4 20,9 22,1 18,3 18,8 11 6 21 11 NNW 1019,1 23 0,0
15.07.2018 09:00:00 17,0 14,5 19,6 20,1 18,1 18,8 16 9 21 12 WNW 1018,9 41 0,0
15.07.2018 08:00:00 16,6 14,2 18,2 18,5 18,1 18,8 15 8 23 12 NW 1018,7 45 0,0
15.07.2018 07:00:00 16,3 13,8 17,0 17,3 18,2 18,8 18 10 23 12 NW 1018,4 41 0,0
15.07.2018 06:00:00 16,4 13,9 15,7 16,7 18,4 18,8 21 11 25 13 NW 1018,3 6 0,0
15.07.2018 05:00:00 16,1 13,0 15,1 16,8 18,7 18,8 20 11 28 15 NW 1018,4 0 0,0
15.07.2018 04:00:00 16,4 13,6 15,3 17,2 18,9 18,8 22 12 28 15 NW 1018,4 0 0,0
15.07.2018 03:00:00 16,4 14,1 15,4 17,5 19,2 18,8 23 13 32 18 NW 1018,4 0 0,0
15.07.2018 02:00:00 16,7 14,0 15,7 17,9 19,4 18,8 27 15 36 19 NW 1018,5 0 0,0
15.07.2018 01:00:00 17,0 13,9 16,1 18,3 19,7 18,8 30 16 39 21 NW 1018,6 0 0,0
15.07.2018 00:00:00 17,5 14,3 16,6 18,8 20,0 18,8 34 19 41 22 WNW 1018,4 0 0,0
14.07.2018 23:00:00 17,8 13,7 16,9 19,3 20,3 18,8 34 18 39 21 WNW 1018,4 0 0,0
14.07.2018 22:00:00 18,2 13,0 17,4 20,1 20,5 18,8 29 16 35 19 WNW 1018,3 10 0,0
14.07.2018 21:00:00 18,4 12,3 18,4 21,4 20,7 18,8 24 13 31 17 W 1018,2 60 0,0
14.07.2018 20:00:00 18,6 12,1 19,4 23,2 20,7 18,8 27 14 33 18 W 1018,4 60 0,0
14.07.2018 19:00:00 18,9 13,0 20,5 24,5 20,5 18,8 22 12 30 16 W 1018,6 57 0,0
14.07.2018 18:00:00 18,9 12,9 21,1 25,2 20,2 18,7 22 12 27 15 W 1018,6 60 0,0
14.07.2018 17:00:00 18,4 12,6 21,0 23,9 19,9 18,7 19 10 27 14 W 1019,0 4 0,0
14.07.2018 16:00:00 17,6 11,8 20,0 24,6 19,5 18,7 21 11 29 16 W 1019,7 8 0,0
14.07.2018 15:00:00 17,6 11,6 21,0 23,3 19,3 18,7 24 13 31 17 W 1019,9 1 0,0
14.07.2018 14:00:00 17,0 11,9 19,1 21,1 19,2 18,7 25 14 34 18 W 1020,0 0 0,0

tt = Température de l'air
td = dewpoint
tt 5cm = Température de l'air 5cm
tt -5cm = Température de l'air -5cm
tt -20cm = Température de l'air -20cm
tt -100cm = Température de l'air -100cm
ff = Vitesse du vent
fx = gusts
dd = Direction du vent
ppp = reduced air pressure
sd = Ensoleillement
rr = Quantités de précipitations

stations d'obs. à proximité